Time;durP1;ratioP1;P1;durP2;ratioP2;P2;SDS_P1;SDS_P2;PMS_P1;PMS_P2;Temp;Humidity;BMP_temperature;BMP_pressure;BME280_temperature;BME280_humidity;BME280_pressure;Samples;Min_cycle;Max_cycle;Signal;HPM_P1;HPM_P2
2021/11/04 00:00:48;;;;;;;16.33;9.93;;;;;;;7.56;88.16;99163.25;5054179;28;20052;-57
2021/11/04 00:03:14;;;;;;;15.40;9.40;;;;;;;7.57;87.93;99164.84;5054504;28;20053;-59
2021/11/04 00:05:40;;;;;;;13.23;8.85;;;;;;;7.57;87.44;99172.78;5054456;28;20053;-60
2021/11/04 00:08:06;;;;;;;14.85;9.25;;;;;;;7.62;87.28;99174.75;5054158;28;20041;-59
2021/11/04 00:10:33;;;;;;;15.15;8.77;;;;;;;7.65;87.24;99183.03;5054341;28;20502;-59
2021/11/04 00:13:00;;;;;;;11.30;8.40;;;;;;;7.63;86.68;99184.25;5054125;28;20037;-59
2021/11/04 00:15:26;;;;;;;13.93;8.30;;;;;;;7.68;87.14;99182.56;5054083;28;20490;-60
2021/11/04 00:17:52;;;;;;;13.35;7.88;;;;;;;7.71;86.81;99181.31;5054193;28;20048;-60
2021/11/04 00:20:19;;;;;;;12.13;7.85;;;;;;;7.77;88.57;99185.69;5054046;28;20461;-59
2021/11/04 00:22:46;;;;;;;11.93;7.68;;;;;;;7.78;87.83;99175.94;5053790;28;20514;-59
2021/11/04 00:25:12;;;;;;;13.23;7.70;;;;;;;7.81;88.02;99175.50;5053856;28;20049;-59
2021/11/04 00:27:38;;;;;;;19.55;8.65;;;;;;;7.74;87.54;99178.25;5053803;28;20072;-61
2021/11/04 00:30:06;;;;;;;12.00;7.68;;;;;;;7.85;89.28;99180.13;5054205;28;20052;-60
2021/11/04 00:32:32;;;;;;;10.20;7.18;;;;;;;7.88;88.19;99184.94;5053595;28;20049;-60
2021/11/04 00:34:58;;;;;;;12.80;7.63;;;;;;;7.94;89.03;99173.50;5052754;28;20047;-59
2021/11/04 00:37:23;;;;;;;12.52;7.50;;;;;;;7.96;87.68;99168.78;5053833;28;20041;-61
2021/11/04 00:39:49;;;;;;;10.43;6.97;;;;;;;7.95;85.77;99172.44;5052624;28;20075;-60
2021/11/04 00:42:15;;;;;;;10.18;6.57;;;;;;;8.01;85.92;99164.66;5053369;28;20040;-60
2021/11/04 00:44:41;;;;;;;9.38;6.22;;;;;;;8.06;85.76;99172.69;5053921;28;20098;-60
2021/11/04 00:47:07;;;;;;;7.93;5.57;;;;;;;8.06;85.57;99177.97;5053584;28;20040;-59
2021/11/04 00:49:33;;;;;;;8.27;5.75;;;;;;;8.05;85.25;99168.44;5052269;28;20515;-58
2021/11/04 00:51:59;;;;;;;8.43;5.53;;;;;;;8.07;85.19;99163.75;5052779;28;20037;-61
2021/11/04 00:54:25;;;;;;;7.30;5.40;;;;;;;8.08;85.60;99165.34;5051917;28;20131;-60
2021/11/04 00:56:50;;;;;;;7.68;5.68;;;;;;;8.03;84.78;99173.97;5052534;28;20048;-59
2021/11/04 00:59:16;;;;;;;7.97;5.32;;;;;;;8.13;85.20;99173.41;5053617;28;20151;-60
2021/11/04 01:01:42;;;;;;;7.88;5.72;;;;;;;8.13;85.45;99166.28;5052159;28;20037;-60
2021/11/04 01:04:08;;;;;;;7.97;5.97;;;;;;;8.18;84.75;99181.47;5053212;28;20079;-59
2021/11/04 01:06:33;;;;;;;7.75;5.40;;;;;;;8.25;85.37;99166.31;5053576;28;20037;-60
2021/11/04 01:08:59;;;;;;;10.38;5.43;;;;;;;8.25;84.26;99173.44;5053294;28;20055;-60
2021/11/04 01:11:25;;;;;;;8.00;5.20;;;;;;;8.25;84.90;99181.34;5052927;28;20051;-60
2021/11/04 01:13:51;;;;;;;7.95;5.57;;;;;;;8.29;85.05;99180.66;5052135;28;20353;-59
2021/11/04 01:16:17;;;;;;;8.35;5.50;;;;;;;8.35;85.34;99169.22;5051438;28;20056;-58
2021/11/04 01:18:43;;;;;;;8.80;5.90;;;;;;;8.30;84.87;99182.28;5053253;28;20423;-60
2021/11/04 01:21:10;;;;;;;8.77;5.50;;;;;;;8.34;86.36;99183.44;5052502;28;20053;-60
2021/11/04 01:23:36;;;;;;;9.32;6.05;;;;;;;8.36;85.81;99188.50;5051148;28;20049;-59
2021/11/04 01:26:02;;;;;;;11.13;5.95;;;;;;;8.37;86.16;99190.91;5052848;28;20041;-59
2021/11/04 01:28:28;;;;;;;7.38;5.15;;;;;;;8.43;85.77;99185.78;5053105;28;20045;-59
2021/11/04 01:30:54;;;;;;;8.52;4.95;;;;;;;8.48;85.69;99197.28;5052659;28;20187;-59
2021/11/04 01:33:20;;;;;;;6.95;4.85;;;;;;;8.52;85.66;99185.19;5051528;28;20063;-60
2021/11/04 01:35:46;;;;;;;6.60;4.80;;;;;;;8.66;85.50;99192.91;5051335;28;20041;-61
2021/11/04 01:38:11;;;;;;;6.20;4.88;;;;;;;8.60;84.09;99181.44;5052660;28;20422;-59
2021/11/04 01:40:39;;;;;;;8.50;5.35;;;;;;;8.67;85.76;99182.09;5052763;28;20041;-59
2021/11/04 01:43:05;;;;;;;9.43;5.63;;;;;;;8.64;84.60;99180.72;5052332;28;20513;-59
2021/11/04 01:45:32;;;;;;;7.72;4.95;;;;;;;8.60;84.25;99192.78;5051423;28;20410;-59
2021/11/04 01:48:00;;;;;;;9.98;5.20;;;;;;;8.61;84.79;99193.59;5034215;28;20037;-59
2021/11/04 01:50:27;;;;;;;7.05;4.93;;;;;;;8.62;84.22;99189.94;5052290;28;20037;-60
2021/11/04 01:52:52;;;;;;;7.68;4.90;;;;;;;8.61;84.94;99183.81;5052234;28;20051;-60
2021/11/04 01:55:21;;;;;;;7.75;5.40;;;;;;;8.67;84.59;99189.22;5052629;28;20153;-59
2021/11/04 01:57:48;;;;;;;7.13;5.45;;;;;;;8.68;85.05;99191.66;5050840;28;20052;-59
2021/11/04 02:00:17;;;;;;;8.38;5.90;;;;;;;8.73;83.86;99188.31;5052612;28;20079;-59
2021/11/04 02:02:51;;;;;;;9.02;5.53;;;;;;;8.74;84.67;99189.94;5052159;28;20410;-60
2021/11/04 02:05:21;;;;;;;7.03;5.20;;;;;;;8.73;84.85;99185.66;5001837;28;20041;-59
2021/11/04 02:08:01;;;;;;;8.05;5.95;;;;;;;8.75;84.40;99184.41;5051810;28;20541;-60
2021/11/04 02:10:31;;;;;;;8.90;5.95;;;;;;;8.71;83.71;99188.56;5050735;28;20126;-60
2021/11/04 02:13:12;;;;;;;9.02;6.40;;;;;;;8.70;84.26;99188.78;5051548;28;20045;-62
2021/11/04 02:15:40;;;;;;;9.98;6.30;;;;;;;8.72;84.14;99186.72;5017951;28;20041;-60
2021/11/04 02:18:08;;;;;;;11.07;6.60;;;;;;;8.75;85.01;99188.91;5050671;28;20072;-61
2021/11/04 02:20:53;;;;;;;10.55;6.78;;;;;;;8.78;84.72;99191.09;5050463;28;20146;-59
2021/11/04 02:23:45;;;;;;;10.00;6.95;;;;;;;8.77;85.16;99194.75;5051581;28;20044;-59
2021/11/04 02:26:11;;;;;;;8.90;7.07;;;;;;;8.80;85.22;99196.94;5047692;28;20081;-60
2021/11/04 02:28:39;;;;;;;9.85;7.25;;;;;;;8.76;85.46;99191.28;5033788;28;20044;-62
2021/11/04 02:31:09;;;;;;;11.55;7.50;;;;;;;8.76;85.05;99193.13;5051470;28;20136;-61
2021/11/04 02:33:37;;;;;;;12.18;7.43;;;;;;;8.73;85.54;99199.69;5033721;28;20055;-60
2021/11/04 02:36:03;;;;;;;12.07;7.07;;;;;;;8.68;85.63;99193.47;5033782;28;20071;-59
2021/11/04 02:38:31;;;;;;;14.55;8.30;;;;;;;8.72;85.78;99206.00;5051636;28;20051;-60
2021/11/04 02:40:58;;;;;;;11.65;7.57;;;;;;;8.75;84.77;99207.41;5051434;28;20052;-60
2021/11/04 02:43:24;;;;;;;10.90;7.63;;;;;;;8.79;84.47;99201.41;5051390;28;20055;-60
2021/11/04 02:45:52;;;;;;;12.77;8.55;;;;;;;8.83;84.87;99207.84;5050406;28;20052;-59
2021/11/04 02:48:18;;;;;;;12.25;8.27;;;;;;;8.80;84.99;99213.59;5051401;28;20077;-60
2021/11/04 02:50:48;;;;;;;13.00;8.68;;;;;;;8.67;85.27;99203.25;5050066;28;20117;-60
2021/11/04 02:53:15;;;;;;;13.05;8.48;;;;;;;8.68;84.99;99212.81;5051034;28;20044;-60
2021/11/04 02:55:42;;;;;;;13.95;8.48;;;;;;;8.73;85.37;99210.25;5051592;28;20040;-61
2021/11/04 02:58:10;;;;;;;13.18;9.05;;;;;;;8.83;85.29;99215.00;5051052;28;20116;-60
2021/11/04 03:00:38;;;;;;;12.63;7.97;;;;;;;8.85;84.87;99213.72;5051229;28;20499;-60
2021/11/04 03:03:04;;;;;;;13.48;8.27;;;;;;;8.79;84.87;99216.47;5049782;28;20131;-59
2021/11/04 03:05:30;;;;;;;13.98;9.15;;;;;;;8.80;84.94;99218.09;5051227;28;20064;-58
2021/11/04 03:07:56;;;;;;;14.05;9.38;;;;;;;8.84;84.45;99216.59;5050951;28;20498;-61
2021/11/04 03:10:22;;;;;;;15.18;9.00;;;;;;;8.84;83.99;99213.94;5051052;28;20140;-59
2021/11/04 03:12:49;;;;;;;11.95;8.60;;;;;;;8.82;84.35;99223.94;5051026;28;20061;-60
2021/11/04 03:15:20;;;;;;;13.63;8.80;;;;;;;8.89;84.15;99222.00;5051538;28;20045;-59
2021/11/04 03:17:48;;;;;;;14.50;8.95;;;;;;;8.86;83.91;99227.75;5051463;28;20045;-59
2021/11/04 03:20:15;;;;;;;13.25;9.23;;;;;;;8.90;84.04;99220.94;5054708;28;20609;-60
2021/11/04 03:22:42;;;;;;;14.90;8.88;;;;;;;8.94;84.07;99227.41;5054234;28;20076;-60
2021/11/04 03:25:09;;;;;;;13.32;8.60;;;;;;;8.96;83.68;99219.22;5053896;28;20048;-61
2021/11/04 03:27:38;;;;;;;12.40;8.52;;;;;;;8.93;83.67;99236.34;5053946;28;20045;-61
2021/11/04 03:30:04;;;;;;;14.15;8.80;;;;;;;8.88;84.42;99228.28;5053793;28;20033;-59
2021/11/04 03:32:31;;;;;;;14.48;8.68;;;;;;;8.84;84.15;99229.81;5053986;28;20037;-61
2021/11/04 03:34:57;;;;;;;18.33;9.02;;;;;;;8.79;83.66;99229.69;5055096;28;20049;-61
2021/11/04 03:37:27;;;;;;;15.02;9.30;;;;;;;8.81;84.83;99232.91;5054920;28;20568;-61
2021/11/04 03:39:53;;;;;;;14.02;8.75;;;;;;;8.89;83.42;99253.72;5053307;28;20041;-60
2021/11/04 03:42:21;;;;;;;13.80;9.07;;;;;;;8.92;83.82;99249.81;5053734;28;20037;-60
2021/11/04 03:44:47;;;;;;;13.60;9.27;;;;;;;8.92;83.58;99252.47;5054803;28;20045;-60
2021/11/04 03:47:16;;;;;;;16.13;8.70;;;;;;;8.93;83.69;99262.78;5054777;28;20075;-61
2021/11/04 03:49:43;;;;;;;16.75;9.75;;;;;;;8.95;83.70;99252.78;5054303;28;20056;-60
2021/11/04 03:52:09;;;;;;;16.20;9.57;;;;;;;8.97;82.79;99257.84;5054753;28;20041;-60
2021/11/04 03:54:35;;;;;;;14.07;8.35;;;;;;;8.95;82.60;99257.28;5053325;28;20453;-60
2021/11/04 03:57:01;;;;;;;16.20;9.88;;;;;;;8.97;83.09;99261.31;5053582;28;20045;-61
2021/11/04 03:59:27;;;;;;;18.58;8.63;;;;;;;8.90;82.87;99267.72;5054555;28;20525;-60
2021/11/04 04:01:54;;;;;;;13.88;8.00;;;;;;;8.85;82.82;99271.88;5054391;28;20115;-61
2021/11/04 04:04:20;;;;;;;14.10;9.18;;;;;;;8.90;83.07;99262.44;5054324;28;20049;-60
2021/11/04 04:06:53;;;;;;;13.82;8.75;;;;;;;8.92;82.78;99270.97;5054441;28;20041;-61
2021/11/04 04:09:22;;;;;;;16.30;8.73;;;;;;;8.96;82.04;99282.69;5054626;28;20051;-60
2021/11/04 04:11:48;;;;;;;13.48;8.52;;;;;;;8.96;82.09;99270.25;5054106;28;20494;-61
2021/11/04 04:14:14;;;;;;;15.10;9.02;;;;;;;8.93;83.35;99275.19;5054285;28;20048;-61
2021/11/04 04:16:40;;;;;;;14.60;8.25;;;;;;;8.93;82.74;99275.19;5054197;28;20068;-60
2021/11/04 04:19:06;;;;;;;15.63;8.70;;;;;;;8.88;82.56;99286.44;5054224;28;20487;-62
2021/11/04 04:21:32;;;;;;;16.25;9.82;;;;;;;8.88;82.51;99286.44;5053933;28;20469;-61
2021/11/04 04:23:58;;;;;;;15.45;8.90;;;;;;;8.91;83.13;99301.06;5054185;28;20044;-61
2021/11/04 04:26:23;;;;;;;16.58;9.40;;;;;;;8.90;82.43;99284.41;5054045;28;20128;-60
2021/11/04 04:28:49;;;;;;;16.92;9.07;;;;;;;8.88;81.93;99286.44;5054127;28;20041;-59
2021/11/04 04:31:15;;;;;;;15.52;8.38;;;;;;;8.86;82.35;99291.19;5052124;28;20049;-59
2021/11/04 04:33:41;;;;;;;12.48;7.88;;;;;;;8.86;82.05;99291.97;5053829;28;20041;-61
2021/11/04 04:36:07;;;;;;;13.70;8.30;;;;;;;8.91;82.30;99293.13;5053745;28;20539;-61
2021/11/04 04:38:33;;;;;;;19.55;8.88;;;;;;;8.87;82.08;99301.50;5054003;28;20056;-61
2021/11/04 04:40:59;;;;;;;15.73;8.68;;;;;;;8.92;82.03;99297.41;5053578;28;20510;-60
2021/11/04 04:43:25;;;;;;;17.92;9.10;;;;;;;8.92;81.88;99314.06;5053777;28;20094;-59
2021/11/04 04:45:51;;;;;;;17.77;9.32;;;;;;;8.94;81.71;99309.34;5035376;28;20055;-59
2021/11/04 04:48:17;;;;;;;15.68;9.30;;;;;;;8.93;81.47;99325.44;5053660;28;20044;-61
2021/11/04 04:50:43;;;;;;;15.40;8.05;;;;;;;8.94;81.15;99327.88;5053758;28;20037;-60
2021/11/04 04:53:09;;;;;;;14.70;8.68;;;;;;;8.94;80.95;99321.75;5053338;28;20128;-60
2021/11/04 04:55:35;;;;;;;14.45;7.65;;;;;;;8.92;80.86;99326.47;5053671;28;20052;-60
2021/11/04 04:58:01;;;;;;;16.15;8.80;;;;;;;8.88;80.78;99326.09;5053360;28;20043;-60
2021/11/04 05:00:27;;;;;;;16.30;9.07;;;;;;;8.92;80.49;99329.13;5053546;28;20048;-60
2021/11/04 05:02:53;;;;;;;14.43;8.90;;;;;;;8.92;80.72;99329.91;5053063;28;20687;-61
2021/11/04 05:05:19;;;;;;;16.00;8.82;;;;;;;8.87;80.32;99332.44;5052058;28;20047;-61
2021/11/04 05:07:45;;;;;;;14.95;8.85;;;;;;;8.89;79.95;99332.22;5051526;28;20049;-61
2021/11/04 05:10:11;;;;;;;16.42;9.43;;;;;;;8.93;80.43;99331.53;5052988;28;20068;-60
2021/11/04 05:12:38;;;;;;;17.10;9.57;;;;;;;8.94;80.28;99341.09;5019773;28;20427;-61
2021/11/04 05:15:05;;;;;;;15.27;8.45;;;;;;;8.94;80.51;99346.38;5033363;28;20048;-61
2021/11/04 05:17:31;;;;;;;15.70;9.18;;;;;;;8.92;80.25;99351.06;5045718;28;20037;-61
2021/11/04 05:19:57;;;;;;;15.70;8.95;;;;;;;8.96;81.10;99346.13;5052911;28;20083;-60
2021/11/04 05:22:23;;;;;;;17.75;9.77;;;;;;;8.96;79.56;99340.84;5052833;28;20037;-61
2021/11/04 05:24:49;;;;;;;14.73;8.73;;;;;;;9.01;79.87;99344.41;5051832;28;20128;-60
2021/11/04 05:27:15;;;;;;;17.42;9.73;;;;;;;9.03;80.18;99345.00;5052380;28;20044;-62
2021/11/04 05:29:41;;;;;;;18.52;10.05;;;;;;;8.99;80.95;99346.47;5053046;28;20033;-61
2021/11/04 05:32:07;;;;;;;17.60;10.00;;;;;;;8.96;79.46;99340.84;5051031;28;20593;-59
2021/11/04 05:34:34;;;;;;;21.13;11.20;;;;;;;8.87;80.02;99349.09;5052179;28;20080;-60
2021/11/04 05:37:00;;;;;;;16.17;9.35;;;;;;;8.87;79.96;99350.94;5051378;28;20540;-60
2021/11/04 05:39:26;;;;;;;18.13;9.55;;;;;;;8.86;79.27;99347.50;5052818;28;20045;-61
2021/11/04 05:41:52;;;;;;;19.80;10.40;;;;;;;8.80;80.24;99356.34;5051944;28;20048;-61
2021/11/04 05:44:18;;;;;;;17.52;9.90;;;;;;;8.79;80.64;99359.19;5051202;28;20044;-59
2021/11/04 05:46:43;;;;;;;16.83;9.82;;;;;;;8.82;79.94;99366.66;5052503;28;20041;-62
2021/11/04 05:49:09;;;;;;;16.70;9.40;;;;;;;8.84;81.12;99365.41;5052376;28;20037;-60
2021/11/04 05:51:35;;;;;;;15.65;8.50;;;;;;;8.95;80.12;99371.75;5052388;28;20137;-60
2021/11/04 05:54:01;;;;;;;15.23;9.43;;;;;;;8.95;79.89;99377.06;5052442;28;20086;-60
2021/11/04 05:56:27;;;;;;;18.42;9.75;;;;;;;8.88;80.68;99373.69;5050812;28;20052;-61
2021/11/04 05:58:52;;;;;;;15.73;9.25;;;;;;;8.96;nan;99380.50;5052593;28;20048;-60
2021/11/04 06:01:18;;;;;;;16.00;9.40;;;;;;;9.04;79.99;99380.97;5051991;28;20037;-60
2021/11/04 06:03:44;;;;;;;16.65;9.90;;;;;;;9.08;79.12;99381.31;5051697;28;20072;-60
2021/11/04 06:06:10;;;;;;;16.48;9.02;;;;;;;9.06;79.36;99388.69;5051410;28;20041;-59
2021/11/04 06:08:35;;;;;;;17.63;9.95;;;;;;;9.08;79.02;99387.41;5052174;28;20107;-62
2021/11/04 06:11:03;;;;;;;19.05;10.65;;;;;;;9.15;78.95;99386.50;5051895;28;20547;-60
2021/11/04 06:13:29;;;;;;;17.00;9.27;;;;;;;9.21;78.61;99391.69;5052102;28;20442;-59
2021/11/04 06:15:55;;;;;;;15.98;9.43;;;;;;;9.23;78.49;99394.09;5050631;28;20069;-60
2021/11/04 06:18:21;;;;;;;17.17;9.38;;;;;;;9.21;78.53;99389.06;5050861;28;20537;-60
2021/11/04 06:20:46;;;;;;;17.10;9.27;;;;;;;9.22;77.91;99398.59;5051796;28;20449;-60
2021/11/04 06:23:12;;;;;;;17.77;9.73;;;;;;;9.24;78.06;99404.47;5051539;28;20078;-60
2021/11/04 06:25:38;;;;;;;18.15;9.63;;;;;;;9.25;78.12;99405.28;5051351;28;20041;-60
2021/11/04 06:28:04;;;;;;;16.70;9.70;;;;;;;9.21;78.37;99404.13;5050398;28;20029;-60
2021/11/04 06:30:30;;;;;;;15.70;9.10;;;;;;;9.16;78.83;99420.66;5051597;28;20041;-60
2021/11/04 06:32:56;;;;;;;18.92;9.75;;;;;;;9.17;78.75;99418.81;5051431;28;20043;-61
2021/11/04 06:35:21;;;;;;;15.65;9.68;;;;;;;9.21;77.93;99412.06;5051834;28;20056;-60
2021/11/04 06:37:48;;;;;;;16.90;9.68;;;;;;;9.22;77.28;99417.09;5049870;28;20522;-60
2021/11/04 06:40:13;;;;;;;15.38;9.43;;;;;;;9.09;77.61;99419.97;5051675;28;20043;-59
2021/11/04 06:42:40;;;;;;;18.25;9.82;;;;;;;9.12;77.83;99421.31;5049794;28;20426;-61
2021/11/04 06:45:07;;;;;;;17.88;10.25;;;;;;;9.04;77.47;99423.28;5051539;28;20040;-59
2021/11/04 06:47:39;;;;;;;19.23;10.13;;;;;;;9.01;78.28;99415.00;5051389;28;20048;-58
2021/11/04 06:50:06;;;;;;;19.17;9.10;;;;;;;9.08;78.50;99418.34;5017234;28;20045;-60
2021/11/04 06:52:35;;;;;;;19.40;9.73;;;;;;;9.17;77.30;99432.03;5050620;28;20549;-60
2021/11/04 06:55:02;;;;;;;17.73;9.88;;;;;;;9.23;77.16;99421.34;5049693;28;20068;-60
2021/11/04 06:57:29;;;;;;;16.38;9.55;;;;;;;9.25;76.77;99429.06;5051126;28;20441;-61
2021/11/04 06:59:58;;;;;;;15.40;9.63;;;;;;;9.23;77.52;99426.66;5049861;28;20086;-60
2021/11/04 07:02:32;;;;;;;16.45;10.05;;;;;;;9.29;76.90;99435.50;5049915;28;20395;-60
2021/11/04 07:04:59;;;;;;;19.33;10.65;;;;;;;9.31;76.74;99428.16;5051582;28;20494;-61
2021/11/04 07:07:26;;;;;;;18.40;10.52;;;;;;;9.38;76.97;99446.56;5051306;28;20483;-61
2021/11/04 07:09:52;;;;;;;17.73;10.30;;;;;;;9.41;76.65;99449.59;5051421;28;20482;-58
2021/11/04 07:12:17;;;;;;;17.35;10.35;;;;;;;9.40;76.25;99445.31;5050821;28;20076;-59
2021/11/04 07:14:44;;;;;;;18.27;10.20;;;;;;;9.47;76.52;99447.84;5051172;28;20133;-60
2021/11/04 07:17:14;;;;;;;17.30;9.68;;;;;;;9.38;76.82;99457.16;5050956;28;20248;-60
2021/11/04 07:19:41;;;;;;;18.35;10.02;;;;;;;9.28;76.33;99447.13;5051370;28;20041;-60
2021/11/04 07:22:22;;;;;;;19.55;10.00;;;;;;;9.30;76.90;99459.09;5050785;28;20525;-61
2021/11/04 07:25:08;;;;;;;16.63;9.30;;;;;;;9.24;76.31;99454.72;5050721;28;20045;-60
2021/11/04 07:27:43;;;;;;;16.73;8.98;;;;;;;9.27;76.39;99462.22;5049473;28;20045;-59
2021/11/04 07:30:12;;;;;;;18.33;10.93;;;;;;;9.31;75.90;99459.91;5051237;28;20049;-59
2021/11/04 07:33:02;;;;;;;16.27;9.48;;;;;;;9.43;75.54;99462.56;5049605;28;20037;-58
2021/11/04 07:35:41;;;;;;;15.93;9.57;;;;;;;9.53;75.72;99463.63;5047721;28;20521;-60
2021/11/04 07:38:12;;;;;;;18.67;10.65;;;;;;;9.67;74.86;99460.75;5048771;28;20040;-60
2021/11/04 07:40:39;;;;;;;14.77;8.98;;;;;;;9.67;75.22;99469.50;5050547;28;20487;-59
2021/11/04 07:43:05;;;;;;;17.05;9.75;;;;;;;9.73;74.65;99478.38;5050275;28;20140;-59
2021/11/04 07:45:32;;;;;;;16.58;9.40;;;;;;;9.77;74.78;99471.59;5050898;28;20052;-59
2021/11/04 07:47:58;;;;;;;16.50;10.45;;;;;;;9.85;73.98;99479.16;5050282;28;20058;-60
2021/11/04 07:50:27;;;;;;;15.30;9.18;;;;;;;9.80;74.18;99478.28;5050727;28;20414;-60
2021/11/04 07:52:53;;;;;;;15.82;9.40;;;;;;;9.75;74.26;99484.25;5050307;28;20056;-60
2021/11/04 07:55:19;;;;;;;17.40;8.95;;;;;;;9.71;74.67;99472.50;5050743;28;20044;-58
2021/11/04 07:57:45;;;;;;;18.20;10.20;;;;;;;9.68;75.26;99487.00;5050546;28;20053;-62
2021/11/04 08:00:14;;;;;;;17.75;9.45;;;;;;;9.65;75.27;99491.97;5040784;28;20551;-61
2021/11/04 08:02:40;;;;;;;14.30;9.10;;;;;;;9.69;74.49;99493.09;5045902;28;20128;-59
2021/11/04 08:05:07;;;;;;;19.80;10.02;;;;;;;9.74;73.91;99487.94;5052399;28;20497;-60
2021/11/04 08:07:35;;;;;;;17.88;9.57;;;;;;;9.76;74.77;99502.56;5053948;28;20079;-60
2021/11/04 08:10:12;;;;;;;16.40;9.02;;;;;;;9.81;73.79;99511.66;5053591;28;20037;-62
2021/11/04 08:12:38;;;;;;;16.88;10.05;;;;;;;9.73;74.37;99502.97;5052711;28;20098;-62
2021/11/04 08:15:07;;;;;;;18.00;8.70;;;;;;;9.74;73.80;99514.41;5051975;28;20041;-61
2021/11/04 08:17:33;;;;;;;16.65;9.52;;;;;;;9.75;74.15;99510.72;5053412;28;20114;-61
2021/11/04 08:19:58;;;;;;;18.50;9.88;;;;;;;9.67;73.93;99517.13;5051937;28;20123;-62
2021/11/04 08:22:24;;;;;;;14.38;9.05;;;;;;;9.68;74.36;99517.97;5053702;28;20044;-66
2021/11/04 08:24:51;;;;;;;19.23;9.73;;;;;;;9.67;73.56;99514.50;5035446;28;20060;-66
2021/11/04 08:27:18;;;;;;;18.55;9.75;;;;;;;9.76;73.72;99525.56;5035352;28;20055;-66
2021/11/04 08:29:44;;;;;;;16.00;9.57;;;;;;;9.79;74.92;99527.75;5053324;28;20171;-66
2021/11/04 08:32:11;;;;;;;18.25;8.82;;;;;;;9.83;73.01;99523.63;5051279;28;20085;-65
2021/11/04 08:34:39;;;;;;;14.85;8.60;;;;;;;9.81;73.64;99528.31;5053060;28;20095;-64
2021/11/04 08:37:06;;;;;;;16.33;9.05;;;;;;;9.84;73.64;99527.88;5035305;28;20057;-68
2021/11/04 08:39:32;;;;;;;20.25;9.10;;;;;;;9.90;74.03;99532.25;5053221;28;20537;-68
2021/11/04 08:41:58;;;;;;;15.65;9.13;;;;;;;9.99;74.28;99545.97;5052924;28;20048;-64
2021/11/04 08:44:24;;;;;;;17.05;8.57;;;;;;;10.00;73.50;99544.94;5052514;28;20037;-66
2021/11/04 08:46:50;;;;;;;14.85;8.73;;;;;;;10.01;73.44;99538.59;5052540;28;20423;-66
2021/11/04 08:49:17;;;;;;;11.05;7.65;;;;;;;9.96;72.25;99546.41;5053000;28;20047;-66
2021/11/04 08:51:43;;;;;;;14.52;8.45;;;;;;;9.94;72.61;99551.97;5052527;28;20421;-68
2021/11/04 08:54:09;;;;;;;15.20;8.75;;;;;;;9.89;72.69;99551.81;5051688;28;20123;-68
2021/11/04 08:56:36;;;;;;;12.88;7.60;;;;;;;9.90;73.13;99552.63;5052731;28;20214;-69
2021/11/04 08:59:03;;;;;;;15.68;8.23;;;;;;;9.90;72.89;99556.06;5052674;28;20044;-65
2021/11/04 09:01:29;;;;;;;12.82;8.57;;;;;;;9.86;72.78;99559.44;5052759;28;20048;-66
2021/11/04 09:03:55;;;;;;;14.70;8.45;;;;;;;9.85;73.64;99555.94;5051447;28;20171;-63
2021/11/04 09:06:21;;;;;;;16.60;9.07;;;;;;;9.88;72.98;99554.69;5052371;28;20135;-64
2021/11/04 09:08:47;;;;;;;15.55;8.68;;;;;;;9.83;73.86;99555.38;5051549;28;20111;-65
2021/11/04 09:11:13;;;;;;;16.35;8.63;;;;;;;9.98;73.06;99573.47;5052610;28;20040;-64
2021/11/04 09:13:39;;;;;;;15.43;8.35;;;;;;;9.88;73.01;99579.34;5052539;28;20037;-72
2021/11/04 09:16:05;;;;;;;12.70;7.57;;;;;;;9.96;72.30;99584.28;5049978;28;20140;-67
2021/11/04 09:18:31;;;;;;;11.60;7.97;;;;;;;10.05;72.87;99583.97;5051599;28;20451;-64
2021/11/04 09:20:57;;;;;;;14.68;8.70;;;;;;;10.08;72.55;99591.44;5052510;28;20061;-63
2021/11/04 09:23:23;;;;;;;14.32;8.98;;;;;;;10.06;72.02;99591.69;5052801;28;20048;-62
2021/11/04 09:25:49;;;;;;;14.82;8.05;;;;;;;10.15;71.18;99598.25;5052287;28;20055;-63
2021/11/04 09:28:16;;;;;;;11.63;8.18;;;;;;;10.23;71.77;99603.22;5034053;28;20052;-63
2021/11/04 09:30:42;;;;;;;14.38;8.23;;;;;;;10.27;71.52;99610.75;5053028;28;20072;-64
2021/11/04 09:33:10;;;;;;;13.30;8.15;;;;;;;10.23;70.59;99611.19;5052702;28;20106;-62
2021/11/04 09:35:36;;;;;;;12.25;8.27;;;;;;;10.27;70.63;99605.44;5050914;28;20040;-63
2021/11/04 09:38:05;;;;;;;15.13;7.57;;;;;;;10.27;70.92;99614.19;5050896;28;20422;-62
2021/11/04 09:40:32;;;;;;;14.93;7.95;;;;;;;10.44;70.90;99609.00;5051185;28;20541;-64
2021/11/04 09:42:59;;;;;;;12.27;7.40;;;;;;;10.46;70.21;99601.63;5051110;28;20569;-63
2021/11/04 09:45:27;;;;;;;13.38;8.55;;;;;;;10.39;70.22;99608.91;5050883;28;20174;-67
2021/11/04 09:47:53;;;;;;;14.80;8.30;;;;;;;10.35;70.87;99613.84;5052067;28;20029;-63
2021/11/04 09:50:20;;;;;;;11.88;7.57;;;;;;;10.25;70.95;99618.88;5052179;28;20063;-63
2021/11/04 09:52:49;;;;;;;12.10;7.82;;;;;;;10.18;71.21;99624.28;5052132;28;20047;-64
2021/11/04 09:55:19;;;;;;;14.10;7.55;;;;;;;10.18;72.07;99615.53;5050863;28;20045;-63
2021/11/04 09:57:47;;;;;;;13.50;9.07;;;;;;;10.26;71.09;99630.28;5050025;28;20045;-65
2021/11/04 10:00:14;;;;;;;15.45;7.38;;;;;;;10.27;71.11;99642.53;5051744;28;20044;-66
2021/11/04 10:02:43;;;;;;;12.80;7.32;;;;;;;10.16;71.17;99630.84;5051430;28;20045;-64
2021/11/04 10:05:11;;;;;;;12.95;7.50;;;;;;;10.12;71.05;99643.75;5050548;28;20033;-65
2021/11/04 10:07:46;;;;;;;10.55;7.18;;;;;;;10.18;71.36;99642.84;5051700;28;20136;-67
2021/11/04 10:10:17;;;;;;;12.10;7.30;;;;;;;10.25;71.11;99640.06;5052085;28;20041;-68
2021/11/04 10:12:57;;;;;;;12.43;7.15;;;;;;;10.13;71.21;99642.72;5049715;28;20131;-66
2021/11/04 10:15:23;;;;;;;11.27;7.07;;;;;;;10.13;70.80;99641.91;5051798;28;20037;-65
2021/11/04 10:17:49;;;;;;;12.23;7.18;;;;;;;10.09;70.18;99648.66;5051696;28;20052;-72
2021/11/04 10:20:18;;;;;;;10.23;6.88;;;;;;;10.15;70.44;99653.88;5049883;28;20148;-67
2021/11/04 10:22:48;;;;;;;10.23;6.47;;;;;;;10.26;69.79;99654.13;5051229;28;20049;-66
2021/11/04 10:25:24;;;;;;;9.88;6.65;;;;;;;10.32;69.19;99654.03;5017298;28;20407;-69
2021/11/04 10:27:51;;;;;;;10.27;6.60;;;;;;;10.31;69.57;99656.94;5049208;28;20045;-70
2021/11/04 10:30:37;;;;;;;9.77;6.63;;;;;;;10.19;69.92;99656.88;5050936;28;20067;-63
2021/11/04 10:33:27;;;;;;;14.52;7.20;;;;;;;10.34;69.35;99659.94;5051064;28;20037;-64
2021/11/04 10:36:18;;;;;;;11.85;6.57;;;;;;;10.41;69.43;99649.22;5049844;28;20132;-67
2021/11/04 10:38:52;;;;;;;12.70;6.35;;;;;;;10.49;69.04;99650.72;5050400;28;20145;-64
2021/11/04 10:41:20;;;;;;;8.70;6.15;;;;;;;10.47;69.03;99664.22;5050985;28;20044;-64
2021/11/04 10:44:13;;;;;;;9.85;6.40;;;;;;;10.62;68.74;99672.50;5051335;28;20068;-65
2021/11/04 10:46:49;;;;;;;9.98;6.30;;;;;;;10.62;68.12;99664.56;5049940;28;20041;-75
2021/11/04 10:49:40;;;;;;;9.85;5.82;;;;;;;10.73;68.23;99678.84;5002132;28;20048;-70
2021/11/04 10:52:08;;;;;;;7.32;5.50;;;;;;;10.81;68.37;99685.66;5049696;28;20045;-70
2021/11/04 10:54:49;;;;;;;8.50;5.45;;;;;;;10.90;67.23;99678.94;5051103;28;20037;-71
2021/11/04 10:57:41;;;;;;;8.55;5.50;;;;;;;10.95;67.66;99670.31;5033008;28;20195;-70
2021/11/04 11:00:20;;;;;;;9.02;5.65;;;;;;;10.97;67.21;99679.66;5049527;28;20076;-71
2021/11/04 11:03:01;;;;;;;7.78;4.97;;;;;;;10.83;66.35;99680.94;5049347;28;20442;-70
2021/11/04 11:05:33;;;;;;;5.57;4.22;;;;;;;10.63;65.88;99686.56;5050800;28;20449;-70
2021/11/04 11:08:00;;;;;;;6.95;4.47;;;;;;;10.50;66.73;99686.78;5049394;28;20124;-70
2021/11/04 11:10:26;;;;;;;8.43;4.95;;;;;;;10.41;67.04;99675.72;5051176;28;20048;-69
2021/11/04 11:12:52;;;;;;;7.05;4.28;;;;;;;10.36;66.93;99679.06;5051302;28;20068;-71
2021/11/04 11:15:19;;;;;;;8.10;5.03;;;;;;;10.17;67.27;99680.94;5049755;28;20387;-70
2021/11/04 11:17:48;;;;;;;6.63;4.38;;;;;;;10.26;67.07;99693.88;5051138;28;20179;-70
2021/11/04 11:20:18;;;;;;;7.63;4.63;;;;;;;10.31;66.84;99689.53;5051133;28;20095;-70
2021/11/04 11:22:44;;;;;;;7.25;4.28;;;;;;;10.36;67.02;99702.09;5049862;28;20134;-69
2021/11/04 11:25:11;;;;;;;6.25;4.35;;;;;;;10.36;66.70;99708.22;5051501;28;20045;-70
2021/11/04 11:27:37;;;;;;;7.78;5.10;;;;;;;10.44;66.99;99710.53;5049553;28;20132;-69
2021/11/04 11:30:13;;;;;;;11.07;5.20;;;;;;;10.54;66.96;99714.47;5016730;28;20053;-69
2021/11/04 11:32:41;;;;;;;8.43;4.70;;;;;;;10.57;66.18;99717.47;5049798;28;20049;-70
2021/11/04 11:35:10;;;;;;;7.25;4.47;;;;;;;10.54;66.55;99723.22;5049568;28;20041;-71
2021/11/04 11:37:37;;;;;;;7.93;4.28;;;;;;;10.46;66.51;99727.00;5049412;28;20399;-69